createdAt,value
2017-08-13T00:00:01.013Z,1010.54
2017-08-13T00:01:00.676Z,1010.53
2017-08-13T00:01:55.721Z,1010.55
2017-08-13T00:02:50.772Z,1010.52
2017-08-13T00:03:51.215Z,1010.57
2017-08-13T00:04:45.841Z,1010.51
2017-08-13T00:05:40.915Z,1010.46
2017-08-13T00:06:42.319Z,1010.46
2017-08-13T00:07:41.969Z,1010.39
2017-08-13T00:08:41.983Z,1010.45
2017-08-13T00:09:37.577Z,1010.46
2017-08-13T00:10:31.115Z,1010.56
2017-08-13T00:11:31.162Z,1010.46
2017-08-13T00:12:26.279Z,1010.51
2017-08-13T00:13:26.152Z,1010.48
2017-08-13T00:14:20.407Z,1010.51
2017-08-13T00:15:20.259Z,1010.49
2017-08-13T00:16:15.391Z,1010.52
2017-08-13T00:17:10.374Z,1010.57
2017-08-13T00:18:10.335Z,1010.60
2017-08-13T00:19:05.725Z,1010.60
2017-08-13T00:20:00.521Z,1010.59
2017-08-13T00:21:06.604Z,1010.60
2017-08-13T00:22:00.416Z,1010.62
2017-08-13T00:23:00.810Z,1010.61
2017-08-13T00:23:55.931Z,1010.61
2017-08-13T00:24:55.600Z,1010.68
2017-08-13T00:25:55.610Z,1010.71
2017-08-13T00:27:01.638Z,1010.70
2017-08-13T00:27:56.671Z,1010.71
2017-08-13T00:28:57.143Z,1010.72
2017-08-13T00:29:51.836Z,1010.67
2017-08-13T00:30:46.679Z,1010.71
2017-08-13T00:31:47.917Z,1010.68
2017-08-13T00:32:47.796Z,1010.69
2017-08-13T00:33:47.869Z,1010.71
2017-08-13T00:34:42.900Z,1010.68
2017-08-13T00:35:37.115Z,1010.71
2017-08-13T00:36:37.983Z,1010.73
2017-08-13T00:37:37.995Z,1010.70
2017-08-13T00:38:38.047Z,1010.72
2017-08-13T00:39:33.086Z,1010.75
2017-08-13T00:40:27.369Z,1010.72
2017-08-13T00:41:27.228Z,1010.69
2017-08-13T00:42:22.675Z,1010.70
2017-08-13T00:43:17.657Z,1010.67
2017-08-13T00:44:18.742Z,1010.69
2017-08-13T00:45:18.233Z,1010.66
2017-08-13T00:46:18.383Z,1010.70
2017-08-13T00:47:13.380Z,1010.69
2017-08-13T00:48:07.376Z,1010.65
2017-08-13T00:49:07.463Z,1010.69
2017-08-13T00:50:02.509Z,1010.67
2017-08-13T00:51:08.429Z,1010.68
2017-08-13T00:52:03.561Z,1010.72
2017-08-13T00:52:57.552Z,1010.73
2017-08-13T00:53:58.935Z,1010.73
2017-08-13T00:54:53.695Z,1010.70
2017-08-13T00:55:47.565Z,1010.72
2017-08-13T00:56:47.697Z,1010.74
2017-08-13T00:57:42.792Z,1010.72
2017-08-13T00:58:42.764Z,1010.71
2017-08-13T00:59:36.880Z,1010.76
2017-08-13T01:00:36.979Z,1010.74
2017-08-13T01:01:31.907Z,1010.74
2017-08-13T01:02:26.869Z,1010.78
2017-08-13T01:03:26.983Z,1010.75
2017-08-13T01:04:22.275Z,1010.75
2017-08-13T01:05:17.000Z,1010.74
2017-08-13T01:06:17.092Z,1010.72
2017-08-13T01:07:12.416Z,1010.72
2017-08-13T01:08:07.337Z,1010.76
2017-08-13T01:09:08.523Z,1010.70
2017-08-13T01:10:09.431Z,1010.75
2017-08-13T01:11:04.494Z,1010.73
2017-08-13T01:11:58.510Z,1010.75
2017-08-13T01:12:58.696Z,1010.81
2017-08-13T01:13:58.583Z,1010.79
2017-08-13T01:14:53.909Z,1010.78
2017-08-13T01:15:47.444Z,1010.82
2017-08-13T01:16:47.412Z,1010.77
2017-08-13T01:17:42.389Z,1010.78
2017-08-13T01:18:37.498Z,1010.78
2017-08-13T01:19:39.006Z,1010.82
2017-08-13T01:20:39.151Z,1010.80
2017-08-13T01:21:38.831Z,1010.83
2017-08-13T01:22:33.944Z,1010.82
2017-08-13T01:23:27.851Z,1010.79
2017-08-13T01:24:28.083Z,1010.78
2017-08-13T01:25:23.148Z,1010.79
2017-08-13T01:26:23.126Z,1010.78
2017-08-13T01:27:16.753Z,1010.78
2017-08-13T01:28:16.776Z,1010.82
2017-08-13T01:29:11.859Z,1010.85
2017-08-13T01:30:06.893Z,1010.82
2017-08-13T01:31:07.375Z,1010.80
2017-08-13T01:32:02.012Z,1010.77
2017-08-13T01:32:56.988Z,1010.79
2017-08-13T01:34:03.413Z,1010.76
2017-08-13T01:34:57.042Z,1010.79
2017-08-13T01:35:57.085Z,1010.74
2017-08-13T01:36:52.251Z,1010.80
2017-08-13T01:37:58.265Z,1010.80
2017-08-13T01:38:58.338Z,1010.84
2017-08-13T01:39:59.175Z,1010.86
2017-08-13T01:40:53.316Z,1010.82
2017-08-13T01:41:53.259Z,1010.82
2017-08-13T01:42:48.335Z,1010.86
2017-08-13T01:43:43.320Z,1010.86
2017-08-13T01:44:44.401Z,1010.86
2017-08-13T01:45:44.385Z,1010.93
2017-08-13T01:46:44.402Z,1010.93
2017-08-13T01:47:39.497Z,1010.97
2017-08-13T01:48:33.482Z,1010.96
2017-08-13T01:49:33.587Z,1011.00
2017-08-13T01:50:29.077Z,1011.01
2017-08-13T01:51:28.597Z,1011.03
2017-08-13T01:52:22.761Z,1011.01
2017-08-13T01:53:22.718Z,1011.02
2017-08-13T01:54:17.757Z,1011.02
2017-08-13T01:55:12.856Z,1011.01
2017-08-13T01:56:12.836Z,1011.04
2017-08-13T01:57:07.877Z,1011.01
2017-08-13T01:58:02.937Z,1011.03
2017-08-13T01:59:03.942Z,1011.03
2017-08-13T02:00:03.953Z,1011.05
2017-08-13T02:01:03.996Z,1011.05
2017-08-13T02:01:59.026Z,1011.03
2017-08-13T02:02:53.015Z,1011.02
2017-08-13T02:03:53.186Z,1011.07
2017-08-13T02:04:48.089Z,1011.02
2017-08-13T02:05:48.117Z,1011.04
2017-08-13T02:06:42.450Z,1011.08
2017-08-13T02:07:36.531Z,1011.06
2017-08-13T02:08:25.213Z,1011.05
2017-08-13T02:09:14.268Z,1011.02
2017-08-13T02:10:03.354Z,1010.95
2017-08-13T02:10:51.398Z,1011.01
2017-08-13T02:11:39.386Z,1011.00
2017-08-13T02:12:27.539Z,1010.98
2017-08-13T02:13:16.487Z,1011.00
2017-08-13T02:14:04.594Z,1010.98
2017-08-13T02:14:52.752Z,1011.00
2017-08-13T02:15:42.147Z,1010.99
2017-08-13T02:16:35.602Z,1010.98
2017-08-13T02:17:23.788Z,1010.94
2017-08-13T02:18:11.838Z,1010.98
2017-08-13T02:19:01.279Z,1010.98
2017-08-13T02:19:48.949Z,1010.96
2017-08-13T02:20:36.865Z,1010.97
2017-08-13T02:21:24.864Z,1011.00
2017-08-13T02:22:12.969Z,1010.99
2017-08-13T02:23:02.163Z,1011.05
2017-08-13T02:23:50.195Z,1011.05
2017-08-13T02:24:39.579Z,1011.02
2017-08-13T02:25:28.143Z,1011.02
2017-08-13T02:26:17.201Z,1011.00
2017-08-13T02:27:05.207Z,1011.02
2017-08-13T02:27:54.302Z,1011.04
2017-08-13T02:28:42.332Z,1011.06
2017-08-13T02:29:30.470Z,1011.02
2017-08-13T02:30:19.845Z,1011.05
2017-08-13T02:31:07.523Z,1011.03
2017-08-13T02:31:55.975Z,1011.06
2017-08-13T02:32:44.620Z,1010.99
2017-08-13T02:33:33.588Z,1011.04
2017-08-13T02:34:23.135Z,1010.99
2017-08-13T02:35:10.973Z,1011.00
2017-08-13T02:36:05.972Z,1011.01
2017-08-13T02:36:55.166Z,1011.06
2017-08-13T02:37:42.863Z,1011.03
2017-08-13T02:38:31.864Z,1011.03
2017-08-13T02:39:20.281Z,1011.04
2017-08-13T02:40:07.872Z,1011.06
2017-08-13T02:40:56.901Z,1011.06
2017-08-13T02:41:45.025Z,1011.02
2017-08-13T02:42:33.093Z,1011.05
2017-08-13T02:43:21.333Z,1011.09
2017-08-13T02:44:10.072Z,1011.06
2017-08-13T02:44:58.426Z,1011.08
2017-08-13T02:45:52.658Z,1011.08
2017-08-13T02:46:41.353Z,1011.06
2017-08-13T02:47:29.360Z,1011.05
2017-08-13T02:48:17.368Z,1011.06
2017-08-13T02:49:05.723Z,1011.02
2017-08-13T02:49:54.489Z,1011.07
2017-08-13T02:50:42.502Z,1011.02
2017-08-13T02:51:30.505Z,1011.05
2017-08-13T02:52:18.658Z,1011.01
2017-08-13T02:53:06.667Z,1011.05
2017-08-13T02:54:02.138Z,1011.01
2017-08-13T02:54:49.868Z,1011.01
2017-08-13T02:55:37.718Z,1011.00
2017-08-13T02:56:26.274Z,1011.02
2017-08-13T02:57:25.923Z,1010.98
2017-08-13T02:58:13.832Z,1011.01
2017-08-13T02:59:02.312Z,1011.02
2017-08-13T02:59:50.209Z,1011.04
2017-08-13T03:00:38.057Z,1011.06
2017-08-13T03:01:27.003Z,1011.07
2017-08-13T03:02:15.039Z,1011.07
2017-08-13T03:03:09.072Z,1011.08
2017-08-13T03:03:57.061Z,1011.10
2017-08-13T03:04:46.383Z,1011.11
2017-08-13T03:05:35.212Z,1011.14
2017-08-13T03:06:23.222Z,1011.09
2017-08-13T03:07:23.251Z,1011.12
2017-08-13T03:08:23.337Z,1011.13
2017-08-13T03:09:29.609Z,1011.14
2017-08-13T03:10:29.423Z,1011.13
2017-08-13T03:11:23.472Z,1011.14
2017-08-13T03:12:24.458Z,1011.17
2017-08-13T03:13:24.565Z,1011.18
2017-08-13T03:14:19.900Z,1011.18
2017-08-13T03:15:19.499Z,1011.19
2017-08-13T03:16:13.633Z,1011.13
2017-08-13T03:17:13.732Z,1011.15
2017-08-13T03:18:08.625Z,1011.17
2017-08-13T03:19:03.654Z,1011.20
2017-08-13T03:20:03.785Z,1011.21
2017-08-13T03:20:58.819Z,1011.19
2017-08-13T03:21:53.826Z,1011.22
2017-08-13T03:22:54.836Z,1011.16
2017-08-13T03:23:55.139Z,1011.20
2017-08-13T03:24:54.841Z,1011.17
2017-08-13T03:25:50.019Z,1011.15
2017-08-13T03:26:50.009Z,1011.13
2017-08-13T03:27:49.970Z,1011.08
2017-08-13T03:28:44.074Z,1011.06
2017-08-13T03:29:44.383Z,1011.11
2017-08-13T03:30:39.217Z,1011.12
2017-08-13T03:31:39.228Z,1011.12
2017-08-13T03:32:33.270Z,1011.13
2017-08-13T03:33:33.148Z,1011.11
2017-08-13T03:34:28.334Z,1011.15
2017-08-13T03:35:28.296Z,1011.14
2017-08-13T03:36:28.388Z,1011.17
2017-08-13T03:37:34.377Z,1011.16
2017-08-13T03:38:29.435Z,1011.16
2017-08-13T03:39:23.678Z,1011.16
2017-08-13T03:40:23.470Z,1011.15
2017-08-13T03:41:18.569Z,1011.19
2017-08-13T03:42:18.986Z,1011.18
2017-08-13T03:43:12.580Z,1011.20
2017-08-13T03:44:12.538Z,1011.15
2017-08-13T03:45:07.554Z,1011.14
2017-08-13T03:46:02.674Z,1011.15
2017-08-13T03:47:03.714Z,1011.19
2017-08-13T03:48:03.811Z,1011.17
2017-08-13T03:49:03.819Z,1011.19
2017-08-13T03:49:58.762Z,1011.22
2017-08-13T03:50:52.915Z,1011.21
2017-08-13T03:51:52.902Z,1011.22
2017-08-13T03:52:47.910Z,1011.21
2017-08-13T03:53:43.502Z,1011.21
2017-08-13T03:54:42.853Z,1011.24
2017-08-13T03:55:37.986Z,1011.26
2017-08-13T03:56:33.148Z,1011.24
2017-08-13T03:57:33.181Z,1011.28
2017-08-13T03:58:28.033Z,1011.30
2017-08-13T03:59:23.072Z,1011.27
2017-08-13T04:00:17.140Z,1011.33
2017-08-13T04:01:18.203Z,1011.28
2017-08-13T04:02:18.686Z,1011.27
2017-08-13T04:03:13.239Z,1011.28
2017-08-13T04:04:13.317Z,1011.28
2017-08-13T04:05:13.326Z,1011.31
2017-08-13T04:06:13.281Z,1011.31
2017-08-13T04:07:07.653Z,1011.28
2017-08-13T04:08:08.396Z,1011.32
2017-08-13T04:09:09.522Z,1011.33
2017-08-13T04:10:09.539Z,1011.35
2017-08-13T04:11:04.601Z,1011.33
2017-08-13T04:12:04.648Z,1011.32
2017-08-13T04:13:05.601Z,1011.37
2017-08-13T04:14:00.212Z,1011.39
2017-08-13T04:15:00.636Z,1011.39
2017-08-13T04:16:00.685Z,1011.39
2017-08-13T04:16:55.853Z,1011.43
2017-08-13T04:17:50.690Z,1011.42
2017-08-13T04:18:50.805Z,1011.42
2017-08-13T04:19:45.784Z,1011.43
2017-08-13T04:20:40.829Z,1011.43
2017-08-13T04:21:34.813Z,1011.41
2017-08-13T04:22:35.006Z,1011.47
2017-08-13T04:23:30.019Z,1011.49
2017-08-13T04:24:29.992Z,1011.52
2017-08-13T04:25:31.507Z,1011.53
2017-08-13T04:26:24.979Z,1011.53
2017-08-13T04:27:25.149Z,1011.54
2017-08-13T04:28:20.141Z,1011.58
2017-08-13T04:29:15.388Z,1011.59
2017-08-13T04:30:09.184Z,1011.57
2017-08-13T04:31:10.232Z,1011.62
2017-08-13T04:32:11.190Z,1011.64
2017-08-13T04:33:06.304Z,1011.64
2017-08-13T04:34:06.414Z,1011.60
2017-08-13T04:35:12.375Z,1011.60
2017-08-13T04:36:07.433Z,1011.63
2017-08-13T04:37:07.445Z,1011.66
2017-08-13T04:38:07.427Z,1011.68
2017-08-13T04:39:02.183Z,1011.69
2017-08-13T04:40:02.801Z,1011.68
2017-08-13T04:41:02.540Z,1011.70
2017-08-13T04:41:57.793Z,1011.72
2017-08-13T04:42:52.687Z,1011.69
2017-08-13T04:43:53.652Z,1011.74
2017-08-13T04:44:53.707Z,1011.71
2017-08-13T04:45:48.892Z,1011.73
2017-08-13T04:46:43.836Z,1011.74
2017-08-13T04:47:43.792Z,1011.75
2017-08-13T04:48:39.152Z,1011.76
2017-08-13T04:49:34.135Z,1011.77
2017-08-13T04:50:27.882Z,1011.79
2017-08-13T04:51:29.183Z,1011.78
2017-08-13T04:52:23.898Z,1011.80
2017-08-13T04:53:24.313Z,1011.83
2017-08-13T04:54:24.195Z,1011.82
2017-08-13T04:55:24.107Z,1011.85
2017-08-13T04:56:24.419Z,1011.85
2017-08-13T04:57:24.218Z,1011.85
2017-08-13T04:58:24.344Z,1011.91
2017-08-13T04:59:24.267Z,1011.88
2017-08-13T05:00:24.407Z,1011.88
2017-08-13T05:01:24.382Z,1011.84
2017-08-13T05:02:30.337Z,1011.86
2017-08-13T05:03:25.328Z,1011.89
2017-08-13T05:04:19.451Z,1011.88
2017-08-13T05:05:19.582Z,1011.88
2017-08-13T05:06:14.863Z,1011.89
2017-08-13T05:07:09.602Z,1011.85
2017-08-13T05:08:09.881Z,1011.87
2017-08-13T05:09:04.893Z,1011.92
2017-08-13T05:09:59.848Z,1011.92
2017-08-13T05:10:53.576Z,1011.93
2017-08-13T05:11:54.695Z,1011.97
2017-08-13T05:12:49.969Z,1011.94
2017-08-13T05:13:50.018Z,1011.93
2017-08-13T05:14:55.799Z,1011.99
2017-08-13T05:15:55.816Z,1011.98
2017-08-13T05:16:56.928Z,1011.92
2017-08-13T05:17:57.945Z,1011.89
2017-08-13T05:18:59.269Z,1011.89
2017-08-13T05:19:53.313Z,1011.93
2017-08-13T05:20:54.363Z,1011.91
2017-08-13T05:21:54.376Z,1011.91
2017-08-13T05:22:49.407Z,1011.94
2017-08-13T05:23:44.412Z,1011.97
2017-08-13T05:24:44.541Z,1011.96
2017-08-13T05:25:39.557Z,1011.96
2017-08-13T05:26:34.560Z,1011.98
2017-08-13T05:27:28.299Z,1011.98
2017-08-13T05:28:29.618Z,1011.96
2017-08-13T05:29:30.549Z,1011.93
2017-08-13T05:30:30.934Z,1011.93
2017-08-13T05:31:30.614Z,1011.92
2017-08-13T05:32:30.818Z,1011.97
2017-08-13T05:33:30.928Z,1011.97
2017-08-13T05:34:30.861Z,1011.97
2017-08-13T05:35:30.893Z,1012.03
2017-08-13T05:36:30.993Z,1012.02
2017-08-13T05:37:31.083Z,1012.07
2017-08-13T05:38:31.195Z,1012.12
2017-08-13T05:39:31.187Z,1012.13
2017-08-13T05:40:31.165Z,1012.15
2017-08-13T05:41:31.198Z,1012.16
2017-08-13T05:42:32.268Z,1012.15
2017-08-13T05:43:27.216Z,1012.17
2017-08-13T05:44:21.293Z,1012.18
2017-08-13T05:45:21.383Z,1012.12
2017-08-13T05:46:16.445Z,1012.14
2017-08-13T05:47:11.371Z,1012.16
2017-08-13T05:48:00.503Z,1012.16
2017-08-13T05:48:55.485Z,1012.22
2017-08-13T05:49:49.584Z,1012.21
2017-08-13T05:50:43.699Z,1012.22
2017-08-13T05:51:38.636Z,1012.19
2017-08-13T05:52:32.664Z,1012.24
2017-08-13T05:53:20.788Z,1012.24
2017-08-13T05:54:14.813Z,1012.20
2017-08-13T05:55:08.800Z,1012.25
2017-08-13T05:56:02.851Z,1012.32
2017-08-13T05:56:57.901Z,1012.28
2017-08-13T05:57:45.991Z,1012.29
2017-08-13T05:58:34.973Z,1012.32
2017-08-13T05:59:23.093Z,1012.25
2017-08-13T06:00:11.069Z,1012.30
2017-08-13T06:00:59.167Z,1012.31
2017-08-13T06:01:47.265Z,1012.28
2017-08-13T06:02:36.328Z,1012.30
2017-08-13T06:03:30.371Z,1012.30
2017-08-13T06:04:30.321Z,1012.29
2017-08-13T06:05:25.360Z,1012.28
2017-08-13T06:06:20.423Z,1012.32
2017-08-13T06:07:20.517Z,1012.30
2017-08-13T06:08:15.536Z,1012.33
2017-08-13T06:09:10.635Z,1012.32
2017-08-13T06:09:58.628Z,1012.37
2017-08-13T06:10:58.665Z,1012.35
2017-08-13T06:11:46.751Z,1012.33
2017-08-13T06:12:34.832Z,1012.35
2017-08-13T06:13:22.932Z,1012.37
2017-08-13T06:14:11.972Z,1012.37
2017-08-13T06:14:59.969Z,1012.43
2017-08-13T06:15:48.053Z,1012.39
2017-08-13T06:16:37.099Z,1012.42
2017-08-13T06:17:31.108Z,1012.35
2017-08-13T06:18:31.108Z,1012.40
2017-08-13T06:19:31.313Z,1012.41
2017-08-13T06:20:31.321Z,1012.43
2017-08-13T06:21:31.253Z,1012.42
2017-08-13T06:22:31.393Z,1012.39
2017-08-13T06:23:31.381Z,1012.37
2017-08-13T06:24:32.448Z,1012.34
2017-08-13T06:25:27.597Z,1012.38
2017-08-13T06:26:21.545Z,1012.41
2017-08-13T06:27:22.635Z,1012.40
2017-08-13T06:28:17.723Z,1012.44
2017-08-13T06:29:17.795Z,1012.43
2017-08-13T06:30:17.677Z,1012.45
2017-08-13T06:31:17.771Z,1012.49
2017-08-13T06:32:17.921Z,1012.48
2017-08-13T06:33:17.870Z,1012.52
2017-08-13T06:34:17.957Z,1012.51
2017-08-13T06:35:18.077Z,1012.56
2017-08-13T06:36:18.111Z,1012.55
2017-08-13T06:37:18.201Z,1012.54
2017-08-13T06:38:18.181Z,1012.57
2017-08-13T06:39:18.228Z,1012.54
2017-08-13T06:40:18.290Z,1012.54
2017-08-13T06:41:18.291Z,1012.57
2017-08-13T06:42:18.353Z,1012.58
2017-08-13T06:43:18.430Z,1012.60
2017-08-13T06:44:24.484Z,1012.61
2017-08-13T06:45:24.554Z,1012.64
2017-08-13T06:46:25.611Z,1012.65
2017-08-13T06:47:26.641Z,1012.64
2017-08-13T06:48:27.749Z,1012.66
2017-08-13T06:49:21.666Z,1012.70
2017-08-13T06:50:21.761Z,1012.69
2017-08-13T06:51:16.718Z,1012.73
2017-08-13T06:52:11.948Z,1012.74
2017-08-13T06:53:05.955Z,1012.81
2017-08-13T06:54:06.144Z,1012.81
2017-08-13T06:55:01.079Z,1012.83
2017-08-13T06:55:56.110Z,1012.82
2017-08-13T06:56:56.153Z,1012.83
2017-08-13T06:57:51.166Z,1012.82
2017-08-13T06:58:46.344Z,1012.82
2017-08-13T06:59:40.397Z,1012.85
2017-08-13T07:00:41.413Z,1012.83
2017-08-13T07:01:36.450Z,1012.82
2017-08-13T07:02:36.506Z,1012.82
2017-08-13T07:03:36.567Z,1012.86
2017-08-13T07:04:36.650Z,1012.86
2017-08-13T07:05:36.665Z,1012.89
2017-08-13T07:06:36.697Z,1012.88
2017-08-13T07:07:36.759Z,1012.87
2017-08-13T07:08:36.835Z,1012.91
2017-08-13T07:09:36.788Z,1012.92
2017-08-13T07:10:36.850Z,1012.92
2017-08-13T07:11:36.967Z,1012.95
2017-08-13T07:12:37.032Z,1012.90
2017-08-13T07:13:37.076Z,1012.94
2017-08-13T07:14:37.122Z,1012.94
2017-08-13T07:15:37.206Z,1012.97
2017-08-13T07:16:37.199Z,1012.95
2017-08-13T07:17:37.242Z,1012.95
2017-08-13T07:18:37.280Z,1012.95
2017-08-13T07:19:37.384Z,1012.94
2017-08-13T07:20:37.550Z,1012.98
2017-08-13T07:21:37.509Z,1012.98
2017-08-13T07:22:37.536Z,1013.02
2017-08-13T07:23:32.607Z,1012.99
2017-08-13T07:24:20.682Z,1012.98
2017-08-13T07:25:09.786Z,1013.01
2017-08-13T07:26:09.835Z,1013.04
2017-08-13T07:27:10.846Z,1013.02
2017-08-13T07:28:04.914Z,1013.06
2017-08-13T07:28:53.947Z,1013.11
2017-08-13T07:29:43.045Z,1013.08
2017-08-13T07:30:31.003Z,1013.13
2017-08-13T07:31:25.145Z,1013.12
2017-08-13T07:32:14.182Z,1013.13
2017-08-13T07:33:03.326Z,1013.12
2017-08-13T07:33:51.292Z,1013.15
2017-08-13T07:34:46.459Z,1013.14
2017-08-13T07:35:35.482Z,1013.16
2017-08-13T07:36:30.481Z,1013.18
2017-08-13T07:37:24.565Z,1013.16
2017-08-13T07:38:19.615Z,1013.17
2017-08-13T07:39:07.925Z,1013.18
2017-08-13T07:39:56.758Z,1013.18
2017-08-13T07:40:50.850Z,1013.21
2017-08-13T07:41:38.819Z,1013.23
2017-08-13T07:42:27.949Z,1013.23
2017-08-13T07:43:21.941Z,1013.19
2017-08-13T07:44:22.008Z,1013.19
2017-08-13T07:45:10.129Z,1013.20
2017-08-13T07:46:04.235Z,1013.20
2017-08-13T07:46:52.203Z,1013.20
2017-08-13T07:47:46.291Z,1013.18
2017-08-13T07:48:40.327Z,1013.21
2017-08-13T07:49:29.442Z,1013.26
2017-08-13T07:50:23.508Z,1013.27
2017-08-13T07:51:23.524Z,1013.29
2017-08-13T07:52:17.613Z,1013.30
2017-08-13T07:53:12.607Z,1013.26
2017-08-13T07:54:06.733Z,1013.25
2017-08-13T07:54:54.882Z,1013.30
2017-08-13T07:55:55.764Z,1013.31
2017-08-13T07:56:56.919Z,1013.28
2017-08-13T07:57:51.304Z,1013.29
2017-08-13T07:58:44.975Z,1013.29
2017-08-13T07:59:45.026Z,1013.30
2017-08-13T08:00:45.094Z,1013.27
2017-08-13T08:01:40.297Z,1013.26
2017-08-13T08:02:34.229Z,1013.28
2017-08-13T08:03:28.379Z,1013.29
2017-08-13T08:04:28.365Z,1013.29
2017-08-13T08:05:22.431Z,1013.33
2017-08-13T08:06:22.470Z,1013.31
2017-08-13T08:07:10.568Z,1013.30
2017-08-13T08:07:58.632Z,1013.27
2017-08-13T08:08:47.665Z,1013.31
2017-08-13T08:09:36.729Z,1013.27
2017-08-13T08:10:30.773Z,1013.29
2017-08-13T08:11:24.758Z,1013.27
2017-08-13T08:12:18.914Z,1013.31
2017-08-13T08:13:18.934Z,1013.30
2017-08-13T08:14:14.160Z,1013.35
2017-08-13T08:15:08.096Z,1013.37
2017-08-13T08:16:08.202Z,1013.37
2017-08-13T08:17:02.163Z,1013.36
2017-08-13T08:17:57.357Z,1013.35
2017-08-13T08:18:57.245Z,1013.45
2017-08-13T08:19:51.462Z,1013.41
2017-08-13T08:20:40.391Z,1013.45
2017-08-13T08:21:40.543Z,1013.45
2017-08-13T08:22:29.602Z,1013.48
2017-08-13T08:23:23.732Z,1013.45
2017-08-13T08:24:11.752Z,1013.43
2017-08-13T08:25:05.821Z,1013.33
2017-08-13T08:25:53.815Z,1013.34
2017-08-13T08:26:47.900Z,1013.45
2017-08-13T08:27:36.976Z,1013.64
2017-08-13T08:28:37.040Z,1013.61
2017-08-13T08:29:26.033Z,1013.57
2017-08-13T08:30:15.228Z,1013.60
2017-08-13T08:31:10.180Z,1013.60
2017-08-13T08:32:05.331Z,1013.57
2017-08-13T08:33:06.333Z,1013.53
2017-08-13T08:34:00.376Z,1013.48
2017-08-13T08:34:49.484Z,1013.49
2017-08-13T08:35:44.465Z,1013.52
2017-08-13T08:36:44.532Z,1013.49
2017-08-13T08:37:39.589Z,1013.46
2017-08-13T08:38:34.682Z,1013.44
2017-08-13T08:39:23.719Z,1013.54
2017-08-13T08:40:17.766Z,1013.57
2017-08-13T08:41:06.876Z,1013.53
2017-08-13T08:41:55.967Z,1013.50
2017-08-13T08:42:50.970Z,1013.50
2017-08-13T08:43:45.987Z,1013.55
2017-08-13T08:44:41.103Z,1013.54
2017-08-13T08:45:30.167Z,1013.56
2017-08-13T08:46:25.328Z,1013.56
2017-08-13T08:47:20.265Z,1013.56
2017-08-13T08:48:15.420Z,1013.57
2017-08-13T08:49:09.461Z,1013.60
2017-08-13T08:50:03.510Z,1013.59
2017-08-13T08:50:57.518Z,1013.62
2017-08-13T08:51:51.598Z,1013.60
2017-08-13T08:52:51.657Z,1013.63
2017-08-13T08:53:39.762Z,1013.60
2017-08-13T08:54:33.756Z,1013.64
2017-08-13T08:55:33.862Z,1013.58
2017-08-13T08:56:21.872Z,1013.60
2017-08-13T08:57:17.002Z,1013.58
2017-08-13T08:58:06.123Z,1013.61
2017-08-13T08:59:01.129Z,1013.63
2017-08-13T08:59:50.152Z,1013.65
2017-08-13T09:00:44.262Z,1013.68
2017-08-13T09:01:33.279Z,1013.67
2017-08-13T09:02:34.316Z,1013.66
2017-08-13T09:03:22.476Z,1013.67
2017-08-13T09:04:11.512Z,1013.68
2017-08-13T09:05:05.567Z,1013.61
2017-08-13T09:05:54.589Z,1013.64
2017-08-13T09:06:49.747Z,1013.70
2017-08-13T09:07:43.697Z,1013.71
2017-08-13T09:08:38.759Z,1013.70
2017-08-13T09:09:38.813Z,1013.71
2017-08-13T09:10:32.894Z,1013.69
2017-08-13T09:11:26.919Z,1013.63
2017-08-13T09:12:15.997Z,1013.66
2017-08-13T09:13:10.149Z,1013.71
2017-08-13T09:14:16.059Z,1013.71
2017-08-13T09:15:10.192Z,1013.69
2017-08-13T09:16:05.254Z,1013.73
2017-08-13T09:17:00.323Z,1013.78
2017-08-13T09:17:54.438Z,1013.77
2017-08-13T09:18:48.406Z,1013.90
2017-08-13T09:19:43.501Z,1013.85
2017-08-13T09:20:37.592Z,1013.76
2017-08-13T09:21:26.644Z,1013.73
2017-08-13T09:22:14.659Z,1013.76
2017-08-13T09:23:09.676Z,1013.77
2017-08-13T09:24:03.828Z,1013.83
2017-08-13T09:25:03.860Z,1013.80
2017-08-13T09:25:58.859Z,1013.74
2017-08-13T09:26:47.012Z,1013.75
2017-08-13T09:27:42.110Z,1013.74
2017-08-13T09:28:43.045Z,1013.74
2017-08-13T09:29:37.216Z,1013.70
2017-08-13T09:30:25.255Z,1013.72
2017-08-13T09:31:26.288Z,1013.77
2017-08-13T09:32:20.313Z,1013.85
2017-08-13T09:33:09.390Z,1013.91
2017-08-13T09:33:58.486Z,1013.89
2017-08-13T09:34:47.560Z,1013.79
2017-08-13T09:35:36.596Z,1013.76
2017-08-13T09:36:31.650Z,1013.71
2017-08-13T09:37:31.713Z,1013.69
2017-08-13T09:38:20.753Z,1013.65
2017-08-13T09:39:14.924Z,1013.65
2017-08-13T09:40:08.867Z,1013.62
2017-08-13T09:41:02.958Z,1013.61
2017-08-13T09:41:52.033Z,1013.88
2017-08-13T09:42:52.185Z,1013.89
2017-08-13T09:43:47.251Z,1013.76
2017-08-13T09:44:41.352Z,1013.76
2017-08-13T09:45:41.395Z,1013.73
2017-08-13T09:46:35.364Z,1013.74
2017-08-13T09:47:24.555Z,1013.76
2017-08-13T09:48:19.456Z,1013.70
2017-08-13T09:49:08.506Z,1013.69
2017-08-13T09:50:02.642Z,1013.76
2017-08-13T09:50:57.696Z,1013.82
2017-08-13T09:51:52.747Z,1013.76
2017-08-13T09:52:58.773Z,1013.68
2017-08-13T09:53:58.768Z,1013.86
2017-08-13T09:54:53.874Z,1013.87
2017-08-13T09:55:42.982Z,1013.82
2017-08-13T09:56:32.057Z,1013.84
2017-08-13T09:57:26.137Z,1013.72
2017-08-13T09:58:15.132Z,1013.72
2017-08-13T09:59:10.465Z,1013.71
2017-08-13T10:00:04.265Z,1013.70
2017-08-13T10:00:53.363Z,1013.72
2017-08-13T10:01:48.442Z,1013.81
2017-08-13T10:02:48.547Z,1013.83
2017-08-13T10:03:48.517Z,1013.94
2017-08-13T10:04:54.651Z,1013.99
2017-08-13T10:05:54.633Z,1014.05
2017-08-13T10:06:54.699Z,1014.00
2017-08-13T10:07:48.800Z,1013.90
2017-08-13T10:08:43.829Z,1013.87
2017-08-13T10:09:37.900Z,1013.83
2017-08-13T10:10:27.095Z,1013.83
2017-08-13T10:11:22.048Z,1013.90
2017-08-13T10:12:16.178Z,1013.97
2017-08-13T10:13:11.099Z,1014.00
2017-08-13T10:14:05.261Z,1013.95
2017-08-13T10:14:54.363Z,1014.04
2017-08-13T10:15:43.280Z,1014.02
2017-08-13T10:16:37.458Z,1014.10
2017-08-13T10:17:31.476Z,1013.87
2017-08-13T10:18:20.587Z,1013.89
2017-08-13T10:19:15.610Z,1013.96
2017-08-13T10:20:15.684Z,1014.01
2017-08-13T10:21:10.745Z,1014.05
2017-08-13T10:22:05.730Z,1014.07
2017-08-13T10:22:53.899Z,1014.17
2017-08-13T10:23:49.007Z,1014.32
2017-08-13T10:24:43.054Z,1014.27
2017-08-13T10:25:37.105Z,1014.16
2017-08-13T10:26:37.051Z,1014.05
2017-08-13T10:27:26.043Z,1013.93
2017-08-13T10:28:20.239Z,1013.94
2017-08-13T10:29:20.490Z,1014.00
2017-08-13T10:30:15.376Z,1013.84
2017-08-13T10:31:03.500Z,1013.87
2017-08-13T10:31:58.439Z,1013.92
2017-08-13T10:32:53.543Z,1014.09
2017-08-13T10:33:41.652Z,1014.16
2017-08-13T10:34:35.724Z,1014.33
2017-08-13T10:35:30.756Z,1014.33
2017-08-13T10:36:19.753Z,1014.18
2017-08-13T10:37:14.801Z,1013.88
2017-08-13T10:38:08.886Z,1013.79
2017-08-13T10:39:09.027Z,1013.75
2017-08-13T10:40:03.020Z,1013.74
2017-08-13T10:40:57.464Z,1013.74
2017-08-13T10:41:51.137Z,1013.77
2017-08-13T10:42:45.154Z,1013.82
2017-08-13T10:43:39.203Z,1013.79
2017-08-13T10:44:34.327Z,1013.81
2017-08-13T10:45:34.313Z,1013.82
2017-08-13T10:46:28.424Z,1013.96
2017-08-13T10:47:22.498Z,1014.02
2017-08-13T10:48:22.607Z,1014.01
2017-08-13T10:49:17.659Z,1014.03
2017-08-13T10:50:17.792Z,1013.99
2017-08-13T10:51:12.754Z,1013.97
2017-08-13T10:52:07.754Z,1013.98
2017-08-13T10:53:08.831Z,1013.95
2017-08-13T10:54:03.954Z,1013.92
2017-08-13T10:54:52.994Z,1013.89
2017-08-13T10:55:54.056Z,1013.87
2017-08-13T10:56:43.052Z,1013.88
2017-08-13T10:57:38.151Z,1013.95
2017-08-13T10:58:33.172Z,1013.96
2017-08-13T10:59:22.372Z,1014.05
2017-08-13T11:00:17.472Z,1014.19
2017-08-13T11:01:11.380Z,1014.16
2017-08-13T11:02:05.513Z,1014.22
2017-08-13T11:02:59.433Z,1014.27
2017-08-13T11:03:54.518Z,1014.33
2017-08-13T11:04:48.466Z,1014.26
2017-08-13T11:05:48.579Z,1014.28
2017-08-13T11:06:37.712Z,1014.27
2017-08-13T11:07:31.731Z,1014.33
2017-08-13T11:08:26.825Z,1014.37
2017-08-13T11:09:15.764Z,1014.37
2017-08-13T11:10:09.876Z,1014.30